Time;durP1;ratioP1;P1;durP2;ratioP2;P2;SDS_P1;SDS_P2;PMS_P1;PMS_P2;Temp;Humidity;BMP_temperature;BMP_pressure;BME280_temperature;BME280_humidity;BME280_pressure;Samples;Min_cycle;Max_cycle;Signal;HPM_P1;HPM_P2
2022/05/26 00:02:14;;;;;;;1.38;1.27;;;19.00;56.50;;;;;;5050981;28;20668;-72
2022/05/26 00:04:40;;;;;;;2.03;1.40;;;19.00;56.50;;;;;;5050653;28;20257;-72
2022/05/26 00:07:05;;;;;;;0.95;0.95;;;19.00;56.50;;;;;;5050286;28;20183;-72
2022/05/26 00:09:31;;;;;;;1.90;1.25;;;19.00;56.50;;;;;;5050684;28;20569;-72
2022/05/26 00:11:56;;;;;;;1.55;1.35;;;19.00;56.50;;;;;;5050525;28;20183;-74
2022/05/26 00:14:22;;;;;;;1.88;1.50;;;19.00;56.70;;;;;;5050295;28;20178;-74
2022/05/26 00:16:47;;;;;;;1.50;1.20;;;19.00;56.60;;;;;;5050626;28;20167;-74
2022/05/26 00:19:14;;;;;;;3.03;1.23;;;19.00;56.70;;;;;;5050932;28;20179;-75
2022/05/26 00:21:39;;;;;;;1.17;1.08;;;19.00;56.70;;;;;;5049507;28;20707;-74
2022/05/26 00:24:05;;;;;;;1.73;1.63;;;19.00;56.70;;;;;;5050726;28;20183;-74
2022/05/26 00:26:31;;;;;;;1.75;1.40;;;19.00;56.70;;;;;;5050716;28;20179;-73
2022/05/26 00:28:56;;;;;;;1.85;1.70;;;19.00;56.80;;;;;;5051413;28;20266;-73
2022/05/26 00:31:22;;;;;;;3.47;1.42;;;18.90;56.70;;;;;;5055014;28;20178;-73
2022/05/26 00:33:47;;;;;;;1.60;1.50;;;19.00;56.90;;;;;;5054539;28;20177;-71
2022/05/26 00:36:14;;;;;;;3.22;1.60;;;19.00;56.90;;;;;;5054137;28;20189;-72
2022/05/26 00:38:39;;;;;;;2.33;1.73;;;18.90;56.80;;;;;;5054532;28;20183;-72
2022/05/26 00:41:10;;;;;;;1.60;1.40;;;18.90;56.90;;;;;;5053880;28;20272;-73
2022/05/26 00:43:40;;;;;;;1.67;1.58;;;18.90;56.90;;;;;;5054416;28;20387;-74
2022/05/26 00:46:27;;;;;;;1.90;1.80;;;18.90;56.90;;;;;;5054690;28;20179;-73
2022/05/26 00:48:55;;;;;;;1.92;1.70;;;18.90;56.90;;;;;;5052118;28;20194;-72
2022/05/26 00:51:23;;;;;;;2.50;2.10;;;18.90;56.90;;;;;;5054437;28;20285;-73
2022/05/26 00:53:57;;;;;;;2.08;1.80;;;18.90;57.10;;;;;;5053049;28;20229;-72
2022/05/26 00:56:41;;;;;;;1.98;1.42;;;18.90;57.00;;;;;;5053771;28;20265;-72
2022/05/26 00:59:11;;;;;;;1.50;1.40;;;18.90;57.00;;;;;;5053000;28;20222;-73
2022/05/26 01:01:37;;;;;;;2.00;1.60;;;18.90;56.90;;;;;;5052544;28;20240;-72
2022/05/26 01:04:10;;;;;;;2.03;1.55;;;18.90;57.00;;;;;;5052160;28;20167;-72
2022/05/26 01:06:44;;;;;;;2.58;1.52;;;18.90;57.00;;;;;;5052496;28;20491;-71
2022/05/26 01:09:10;;;;;;;1.73;1.60;;;18.90;57.00;;;;;;5052141;28;20649;-72
2022/05/26 01:11:36;;;;;;;1.88;1.58;;;18.90;57.00;;;;;;5053778;28;20265;-73
2022/05/26 01:14:06;;;;;;;2.80;1.70;;;18.90;57.00;;;;;;5053996;28;20179;-75
2022/05/26 01:16:40;;;;;;;2.45;2.05;;;18.90;57.20;;;;;;5053209;28;20639;-74
2022/05/26 01:19:35;;;;;;;1.95;1.80;;;18.90;57.20;;;;;;5054254;28;20178;-74
2022/05/26 01:22:39;;;;;;;2.58;1.80;;;18.90;57.20;;;;;;5053963;28;20218;-74
2022/05/26 01:25:23;;;;;;;2.72;2.22;;;18.90;57.30;;;;;;5051853;28;20671;-74
2022/05/26 01:28:36;;;;;;;2.15;1.70;;;18.90;57.30;;;;;;5053917;28;20175;-74
2022/05/26 01:31:20;;;;;;;1.73;1.63;;;18.90;57.20;;;;;;5036394;28;20191;-72
2022/05/26 01:34:22;;;;;;;1.92;1.65;;;18.90;57.30;;;;;;5053826;28;20178;-72
2022/05/26 01:36:56;;;;;;;2.58;2.05;;;18.80;57.20;;;;;;5053439;28;20179;-73
2022/05/26 01:39:28;;;;;;;3.67;2.00;;;18.90;57.20;;;;;;5051434;28;20179;-73
2022/05/26 01:42:12;;;;;;;2.42;2.03;;;18.90;57.30;;;;;;5051433;28;20253;-73
2022/05/26 01:45:00;;;;;;;2.28;2.08;;;18.90;57.30;;;;;;5052707;28;20171;-73
2022/05/26 01:47:26;;;;;;;2.63;2.00;;;18.90;57.30;;;;;;5052287;28;20585;-73
2022/05/26 01:50:06;;;;;;;1.90;1.80;;;18.80;57.40;;;;;;5052896;28;20304;-72
2022/05/26 01:52:36;;;;;;;2.30;2.10;;;18.90;57.40;;;;;;5051565;28;20511;-73
2022/05/26 01:55:23;;;;;;;2.20;2.00;;;18.80;57.30;;;;;;5051910;28;20179;-72
2022/05/26 01:58:24;;;;;;;3.25;1.90;;;18.90;57.40;;;;;;5052922;28;20167;-72
2022/05/26 02:00:51;;;;;;;2.03;1.92;;;18.80;57.40;;;;;;5051471;28;20231;-72
2022/05/26 02:03:21;;;;;;;2.63;2.28;;;18.80;57.50;;;;;;5052003;28;20190;-72
2022/05/26 02:05:53;;;;;;;2.55;2.20;;;18.80;57.50;;;;;;5051035;28;20167;-72
2022/05/26 02:08:25;;;;;;;3.65;2.05;;;18.80;57.50;;;;;;5053109;28;20205;-73
2022/05/26 02:11:12;;;;;;;2.00;1.80;;;18.80;57.40;;;;;;5051687;28;20177;-73
2022/05/26 02:14:02;;;;;;;2.58;1.90;;;18.80;57.40;;;;;;5052150;28;20171;-75
2022/05/26 02:16:46;;;;;;;2.30;2.10;;;18.80;57.40;;;;;;5051724;28;20266;-75
2022/05/26 02:19:48;;;;;;;2.72;2.00;;;18.80;57.60;;;;;;5053187;28;20236;-74
2022/05/26 02:22:19;;;;;;;3.00;2.40;;;18.80;57.50;;;;;;5051946;28;20226;-75
2022/05/26 02:24:50;;;;;;;2.05;1.85;;;18.80;57.50;;;;;;5052317;28;20266;-75
2022/05/26 02:27:16;;;;;;;2.60;2.40;;;18.80;57.40;;;;;;5051719;28;20194;-74
2022/05/26 02:29:59;;;;;;;2.20;1.90;;;18.80;57.50;;;;;;5052149;28;20179;-73
2022/05/26 02:32:39;;;;;;;2.40;2.20;;;18.80;58.10;;;;;;5052679;28;20186;-72
2022/05/26 02:35:14;;;;;;;3.33;2.53;;;18.80;57.50;;;;;;5051689;28;20186;-72
2022/05/26 02:37:40;;;;;;;2.45;2.25;;;18.80;57.50;;;;;;5051874;28;20171;-72
2022/05/26 02:40:06;;;;;;;3.50;2.20;;;18.80;57.60;;;;;;5052437;28;20183;-73
2022/05/26 02:42:33;;;;;;;3.40;2.47;;;18.80;57.60;;;;;;5052568;28;20218;-72
2022/05/26 02:44:58;;;;;;;3.47;2.50;;;18.70;57.60;;;;;;5053201;28;20194;-73
2022/05/26 02:47:50;;;;;;;2.88;2.53;;;18.70;57.90;;;;;;5052148;28;20183;-72
2022/05/26 02:50:37;;;;;;;2.60;2.20;;;18.80;57.70;;;;;;5052190;28;20233;-74
2022/05/26 02:53:26;;;;;;;3.78;2.10;;;18.80;57.70;;;;;;5052225;28;20203;-72
2022/05/26 02:56:20;;;;;;;2.60;2.40;;;18.80;57.70;;;;;;5052314;28;20175;-72
2022/05/26 02:59:02;;;;;;;4.57;2.17;;;18.80;57.70;;;;;;5051450;28;20187;-72
2022/05/26 03:01:33;;;;;;;2.95;2.22;;;18.80;57.70;;;;;;5051870;28;20253;-73
2022/05/26 03:04:03;;;;;;;2.47;2.15;;;18.80;57.70;;;;;;5051520;28;20193;-72
2022/05/26 03:06:40;;;;;;;2.60;2.40;;;18.80;57.80;;;;;;5051797;28;20171;-72
2022/05/26 03:09:06;;;;;;;2.75;2.33;;;18.70;57.70;;;;;;5051337;28;20182;-72
2022/05/26 03:11:49;;;;;;;2.75;2.35;;;18.80;57.70;;;;;;5051841;28;20171;-74
2022/05/26 03:14:16;;;;;;;3.05;2.38;;;18.70;57.70;;;;;;5051886;28;20252;-75
2022/05/26 03:16:42;;;;;;;3.10;2.75;;;18.70;57.90;;;;;;5051787;28;20186;-74
2022/05/26 03:19:07;;;;;;;2.75;2.50;;;18.80;57.70;;;;;;5052804;28;20330;-75
2022/05/26 03:21:33;;;;;;;3.17;2.50;;;18.80;57.70;;;;;;5052685;28;20211;-75
2022/05/26 03:23:59;;;;;;;2.80;2.50;;;18.70;57.70;;;;;;5051658;28;20171;-74
2022/05/26 03:26:24;;;;;;;3.17;2.40;;;18.70;57.70;;;;;;5052795;28;20179;-74
2022/05/26 03:28:50;;;;;;;4.85;2.72;;;18.70;57.80;;;;;;5052202;28;20186;-73
2022/05/26 03:31:15;;;;;;;3.20;2.45;;;18.70;57.90;;;;;;5051840;28;20596;-73
2022/05/26 03:41:55;;;;;;;4.68;2.97;;;18.70;57.90;;;;;;5052027;28;20225;-73
2022/05/26 03:44:20;;;;;;;3.05;2.70;;;18.70;57.90;;;;;;5051415;28;20274;-74
2022/05/26 03:46:47;;;;;;;4.45;2.60;;;18.70;57.90;;;;;;5050716;28;20698;-73
2022/05/26 03:49:13;;;;;;;3.38;2.40;;;18.70;57.90;;;;;;5051031;28;20190;-72
2022/05/26 03:51:38;;;;;;;5.32;3.03;;;18.70;57.90;;;;;;5051270;28;20183;-73
2022/05/26 03:54:04;;;;;;;3.95;2.55;;;18.70;57.90;;;;;;5051990;28;20171;-73
2022/05/26 03:56:30;;;;;;;5.18;3.00;;;18.70;58.00;;;;;;5052128;28;20214;-73
2022/05/26 03:58:55;;;;;;;4.05;3.22;;;18.70;58.00;;;;;;5050884;28;20170;-73
2022/05/26 04:01:22;;;;;;;4.45;2.83;;;18.70;58.00;;;;;;5052222;28;20210;-73
2022/05/26 04:03:48;;;;;;;3.70;3.03;;;18.70;58.00;;;;;;5051246;28;20201;-73
2022/05/26 04:06:15;;;;;;;3.33;2.55;;;18.70;57.90;;;;;;5051282;28;20715;-72
2022/05/26 04:08:40;;;;;;;4.72;3.05;;;18.70;58.00;;;;;;5051667;28;20248;-72
2022/05/26 04:11:06;;;;;;;3.95;2.95;;;18.70;58.00;;;;;;5051816;28;20183;-73
2022/05/26 04:13:31;;;;;;;3.33;2.95;;;18.70;58.00;;;;;;5050929;28;20171;-75
2022/05/26 04:15:57;;;;;;;4.85;3.28;;;18.70;58.10;;;;;;5051732;28;20665;-75
2022/05/26 04:18:22;;;;;;;5.35;3.22;;;18.70;58.70;;;;;;5051888;28;20187;-74
2022/05/26 04:20:48;;;;;;;5.07;2.97;;;18.70;58.10;;;;;;5050640;28;20739;-75
2022/05/26 04:23:13;;;;;;;4.72;2.95;;;18.70;58.00;;;;;;5051832;28;20630;-74
2022/05/26 04:25:39;;;;;;;4.90;2.83;;;18.70;58.00;;;;;;5051457;28;20171;-73
2022/05/26 04:28:04;;;;;;;5.20;2.97;;;18.80;58.00;;;;;;5050967;28;20178;-73
2022/05/26 04:30:30;;;;;;;5.18;3.03;;;18.70;58.00;;;;;;5052060;28;20218;-72
2022/05/26 04:32:56;;;;;;;6.15;3.20;;;18.80;58.00;;;;;;5051613;28;20194;-73
2022/05/26 04:35:21;;;;;;;5.88;3.03;;;18.80;58.70;;;;;;5051005;28;20164;-72
2022/05/26 04:37:48;;;;;;;4.72;2.92;;;18.80;58.10;;;;;;5051347;28;20211;-72
2022/05/26 04:40:13;;;;;;;4.75;2.42;;;18.80;58.10;;;;;;5050829;28;20179;-72
2022/05/26 04:42:39;;;;;;;5.30;2.85;;;18.80;58.20;;;;;;5051099;28;20572;-72
2022/05/26 04:45:06;;;;;;;6.75;2.78;;;18.70;58.10;;;;;;5051754;28;20226;-73
2022/05/26 04:47:31;;;;;;;5.43;3.28;;;18.70;58.10;;;;;;5050940;28;20179;-72
2022/05/26 04:49:57;;;;;;;5.32;2.92;;;18.80;58.20;;;;;;5051259;28;20197;-73
2022/05/26 04:52:23;;;;;;;3.88;2.70;;;18.80;58.20;;;;;;5051600;28;20167;-72
2022/05/26 04:54:48;;;;;;;3.67;2.63;;;18.80;58.30;;;;;;5050430;28;20175;-72
2022/05/26 04:57:15;;;;;;;3.63;3.10;;;18.80;58.30;;;;;;5051513;28;20175;-74
2022/05/26 04:59:40;;;;;;;4.60;2.92;;;18.70;58.30;;;;;;5050939;28;20266;-74
2022/05/26 05:02:09;;;;;;;5.53;2.90;;;18.70;58.40;;;;;;5050765;28;20238;-74
2022/05/26 05:04:35;;;;;;;4.50;2.88;;;18.80;58.30;;;;;;5051347;28;20217;-72
2022/05/26 05:07:00;;;;;;;4.95;2.67;;;18.80;58.50;;;;;;5051591;28;20203;-72
2022/05/26 05:09:26;;;;;;;5.63;3.20;;;18.70;58.40;;;;;;5050622;28;20217;-73
2022/05/26 05:11:52;;;;;;;4.35;2.53;;;18.70;58.40;;;;;;5051071;28;20179;-74
2022/05/26 05:14:17;;;;;;;3.15;2.65;;;18.80;58.40;;;;;;5052053;28;20218;-76
2022/05/26 05:16:43;;;;;;;4.70;3.03;;;18.70;58.40;;;;;;5054189;28;20217;-74
2022/05/26 05:19:10;;;;;;;5.95;2.75;;;18.70;58.40;;;;;;5055283;28;20183;-75
2022/05/26 05:21:48;;;;;;;3.83;2.78;;;18.80;58.50;;;;;;5055526;28;20203;-75
2022/05/26 05:24:29;;;;;;;4.80;2.70;;;18.80;58.40;;;;;;5053381;28;20175;-75
2022/05/26 05:27:00;;;;;;;6.63;3.22;;;18.80;58.40;;;;;;5053711;28;20637;-74
2022/05/26 05:29:27;;;;;;;5.10;3.40;;;18.80;58.40;;;;;;5053354;28;20218;-74
2022/05/26 05:31:56;;;;;;;4.20;2.58;;;18.80;58.40;;;;;;5053689;28;20179;-72
2022/05/26 05:34:43;;;;;;;4.30;2.80;;;18.80;58.40;;;;;;5053825;28;20264;-73
2022/05/26 05:37:09;;;;;;;4.78;3.30;;;18.80;58.40;;;;;;5053202;28;20257;-73
2022/05/26 05:39:34;;;;;;;6.57;2.78;;;18.80;58.40;;;;;;5053676;28;20599;-72
2022/05/26 05:42:00;;;;;;;5.28;2.88;;;18.80;58.40;;;;;;5053746;28;20217;-73
2022/05/26 05:44:26;;;;;;;6.05;2.95;;;18.80;58.40;;;;;;5053063;28;20179;-73
2022/05/26 05:46:54;;;;;;;5.57;2.97;;;18.80;58.40;;;;;;5054555;28;20186;-73
2022/05/26 05:49:21;;;;;;;4.50;3.08;;;18.90;58.40;;;;;;5054758;28;20195;-73
2022/05/26 05:51:47;;;;;;;6.15;3.10;;;18.90;58.40;;;;;;5053866;28;20315;-73
2022/05/26 05:54:12;;;;;;;4.30;2.83;;;18.90;58.50;;;;;;5054709;28;20626;-73
2022/05/26 05:56:38;;;;;;;5.05;2.40;;;18.90;58.50;;;;;;5054583;28;20190;-73
2022/05/26 05:59:04;;;;;;;5.47;3.55;;;18.80;58.40;;;;;;5053761;28;20608;-73
2022/05/26 06:01:29;;;;;;;4.65;2.70;;;18.90;58.50;;;;;;5054443;28;20781;-72
2022/05/26 06:03:55;;;;;;;7.47;2.92;;;18.80;58.40;;;;;;5054159;28;20172;-72
2022/05/26 06:06:20;;;;;;;6.70;2.95;;;18.80;58.40;;;;;;5053678;28;20549;-73
2022/05/26 06:08:46;;;;;;;6.40;3.20;;;18.90;58.40;;;;;;5054101;28;20175;-73
2022/05/26 06:11:11;;;;;;;6.15;2.97;;;18.90;58.50;;;;;;5054401;28;20167;-73
2022/05/26 06:13:37;;;;;;;3.58;2.70;;;18.90;58.40;;;;;;5053435;28;20198;-75
2022/05/26 06:16:03;;;;;;;5.63;2.88;;;18.90;58.40;;;;;;5054352;28;20529;-76
2022/05/26 06:18:29;;;;;;;5.15;3.13;;;18.90;58.40;;;;;;5053813;28;20571;-76
2022/05/26 06:21:01;;;;;;;5.45;3.20;;;19.00;58.30;;;;;;5053586;28;20310;-73
2022/05/26 06:23:27;;;;;;;3.42;2.75;;;19.00;58.10;;;;;;5054126;28;20634;-75
2022/05/26 06:25:52;;;;;;;3.70;2.45;;;19.00;58.10;;;;;;5052911;28;20261;-74
2022/05/26 06:31:02;;;;;;;6.28;2.83;;;19.00;58.60;;;;;;5054110;28;20202;-73
2022/05/26 06:38:56;;;;;;;7.10;3.30;;;19.00;58.80;;;;;;5053870;28;20177;-72
2022/05/26 06:44:06;;;;;;;10.60;3.08;;;19.10;58.60;;;;;;5053958;28;20182;-70
2022/05/26 06:46:31;;;;;;;9.48;3.10;;;19.10;59.20;;;;;;5053751;28;20175;-72
2022/05/26 06:48:57;;;;;;;8.07;3.05;;;19.10;58.60;;;;;;5052645;28;20533;-71
2022/05/26 06:51:26;;;;;;;7.22;2.70;;;19.10;58.60;;;;;;5053669;28;20270;-75
2022/05/26 06:53:52;;;;;;;7.30;3.15;;;19.10;58.60;;;;;;5052781;28;20182;-74
2022/05/26 06:56:17;;;;;;;7.95;3.08;;;19.10;58.90;;;;;;5053840;28;20180;-75
2022/05/26 06:58:43;;;;;;;10.68;3.35;;;19.10;58.80;;;;;;5053250;28;20229;-75
2022/05/26 07:01:08;;;;;;;8.43;2.88;;;19.10;58.70;;;;;;5052555;28;20265;-74
2022/05/26 07:03:34;;;;;;;6.03;3.10;;;19.10;58.60;;;;;;5053628;28;20187;-73
2022/05/26 07:06:00;;;;;;;6.13;2.95;;;19.10;59.00;;;;;;5053497;28;20248;-73
2022/05/26 07:08:25;;;;;;;7.45;3.53;;;19.30;58.90;;;;;;5052484;28;20573;-73
2022/05/26 07:10:52;;;;;;;8.52;3.67;;;19.30;59.00;;;;;;5052834;28;20198;-73
2022/05/26 07:13:18;;;;;;;4.78;2.90;;;19.30;59.00;;;;;;5053503;28;20198;-72
2022/05/26 07:15:43;;;;;;;7.03;3.35;;;19.30;59.20;;;;;;5052460;28;20249;-71
2022/05/26 07:18:09;;;;;;;6.60;3.00;;;19.20;59.20;;;;;;5053270;28;20183;-72
2022/05/26 07:20:36;;;;;;;8.13;3.17;;;19.30;59.30;;;;;;5052658;28;20198;-71
2022/05/26 07:23:03;;;;;;;6.55;3.00;;;19.30;59.30;;;;;;5052245;28;20176;-72
2022/05/26 07:25:28;;;;;;;10.07;2.88;;;19.40;59.90;;;;;;5053333;28;20183;-70
2022/05/26 07:27:54;;;;;;;6.75;2.97;;;19.40;59.30;;;;;;5052698;28;20198;-72
2022/05/26 07:30:19;;;;;;;8.23;3.80;;;19.40;59.30;;;;;;5052344;28;20186;-72
2022/05/26 07:32:45;;;;;;;6.78;2.85;;;19.40;59.20;;;;;;5052597;28;20171;-72
2022/05/26 07:35:10;;;;;;;7.32;3.30;;;19.40;59.30;;;;;;5052818;28;20225;-73
2022/05/26 07:43:07;;;;;;;7.43;2.47;;;19.50;59.10;;;;;;5051988;28;20194;-72
2022/05/26 07:45:32;;;;;;;6.93;3.53;;;19.60;59.00;;;;;;5051281;28;20197;-71
2022/05/26 07:47:57;;;;;;;6.03;2.45;;;19.60;59.00;;;;;;5052148;28;20642;-71
2022/05/26 07:50:23;;;;;;;5.22;2.88;;;19.60;59.10;;;;;;5051981;28;20182;-70
2022/05/26 07:52:49;;;;;;;6.65;2.58;;;19.60;59.10;;;;;;5052551;28;20187;-71
2022/05/26 07:55:14;;;;;;;6.68;2.40;;;19.60;59.00;;;;;;5052484;28;20179;-71
2022/05/26 07:57:40;;;;;;;5.93;2.70;;;19.60;59.00;;;;;;5051452;28;20183;-71
2022/05/26 08:00:06;;;;;;;5.78;2.28;;;19.60;58.80;;;;;;5052157;28;20215;-73
2022/05/26 08:02:32;;;;;;;5.03;2.58;;;19.60;58.80;;;;;;5052160;28;20297;-73
2022/05/26 08:04:57;;;;;;;13.35;2.50;;;19.60;58.80;;;;;;5051270;28;20171;-73
2022/05/26 08:07:23;;;;;;;6.90;2.95;;;19.70;58.90;;;;;;5052489;28;20530;-73
2022/05/26 08:09:49;;;;;;;4.60;2.20;;;19.60;58.80;;;;;;5052004;28;20254;-71
2022/05/26 08:12:14;;;;;;;6.93;2.72;;;19.50;58.90;;;;;;5050948;28;20183;-70
2022/05/26 08:14:41;;;;;;;3.70;2.38;;;19.50;59.00;;;;;;5051799;28;20174;-71
2022/05/26 08:17:07;;;;;;;8.98;2.72;;;19.50;58.90;;;;;;5051881;28;20269;-71
2022/05/26 08:19:32;;;;;;;6.20;2.22;;;19.60;58.80;;;;;;5051326;28;20187;-68
2022/05/26 08:21:58;;;;;;;9.65;2.65;;;19.60;58.80;;;;;;5051624;28;20548;-68
2022/05/26 08:24:24;;;;;;;3.95;2.08;;;19.70;58.70;;;;;;5051754;28;20197;-71
2022/05/26 08:26:50;;;;;;;5.78;2.17;;;19.70;58.50;;;;;;5050639;28;20175;-72
2022/05/26 08:29:15;;;;;;;6.90;2.70;;;19.70;58.50;;;;;;5051562;28;20163;-73
2022/05/26 08:31:41;;;;;;;5.85;2.47;;;19.60;59.00;;;;;;5051135;28;20630;-73
2022/05/26 08:34:06;;;;;;;4.63;2.10;;;19.60;58.30;;;;;;5051116;28;20182;-72
2022/05/26 08:36:32;;;;;;;5.78;1.58;;;19.60;57.80;;;;;;5051674;28;20200;-72
2022/05/26 08:38:58;;;;;;;5.53;2.50;;;19.70;57.60;;;;;;5050420;28;20648;-71
2022/05/26 08:41:35;;;;;;;6.25;1.95;;;19.70;57.10;;;;;;5051380;28;20203;-71
2022/05/26 08:44:05;;;;;;;4.15;1.60;;;19.70;57.00;;;;;;5052099;28;20182;-69
2022/05/26 08:46:38;;;;;;;3.78;1.67;;;19.70;56.90;;;;;;5050688;28;20202;-70
2022/05/26 08:49:09;;;;;;;5.03;2.08;;;19.80;56.90;;;;;;5051710;28;20259;-70
2022/05/26 08:51:47;;;;;;;5.03;2.00;;;19.80;56.90;;;;;;5054911;28;20748;-70
2022/05/26 08:54:37;;;;;;;7.10;2.40;;;19.90;56.90;;;;;;5053492;28;20626;-69
2022/05/26 08:57:03;;;;;;;3.60;1.77;;;19.90;56.80;;;;;;5053800;28;20257;-69
2022/05/26 08:59:38;;;;;;;4.25;1.52;;;19.80;56.70;;;;;;5054135;28;20223;-71
2022/05/26 09:02:04;;;;;;;5.03;1.80;;;19.80;56.70;;;;;;5051342;28;20546;-72
2022/05/26 09:04:29;;;;;;;3.10;1.65;;;19.80;56.60;;;;;;5055445;28;20695;-71
2022/05/26 09:15:13;;;;;;;4.60;1.73;;;19.90;56.40;;;;;;5053807;28;20249;-74
2022/05/26 09:17:39;;;;;;;5.45;1.63;;;19.90;56.40;;;;;;5054977;28;20584;-73
2022/05/26 09:20:05;;;;;;;4.38;1.45;;;19.90;56.50;;;;;;5062968;28;20530;-73
2022/05/26 09:22:42;;;;;;;4.68;1.38;;;19.90;56.70;;;;;;5038784;28;20783;-73
2022/05/26 09:25:32;;;;;;;5.05;1.48;;;20.00;56.60;;;;;;5062318;28;20205;-72
2022/05/26 09:27:57;;;;;;;5.47;1.52;;;20.00;56.40;;;;;;5057911;28;20190;-72
2022/05/26 09:30:31;;;;;;;4.97;1.40;;;20.00;56.30;;;;;;5074235;28;20183;-73
2022/05/26 09:32:57;;;;;;;4.07;1.42;;;20.00;56.60;;;;;;5074833;28;20190;-74
2022/05/26 09:35:25;;;;;;;3.28;1.42;;;19.90;56.70;;;;;;5073046;28;20193;-74
2022/05/26 09:37:56;;;;;;;6.00;1.60;;;19.90;56.90;;;;;;5054794;28;20191;-74
2022/05/26 09:40:29;;;;;;;3.22;1.17;;;19.90;57.00;;;;;;5053783;28;20274;-73
2022/05/26 09:43:16;;;;;;;5.53;1.63;;;19.80;57.10;;;;;;5054027;28;20218;-73
2022/05/26 09:45:49;;;;;;;4.63;1.73;;;19.90;57.00;;;;;;5053706;28;20179;-73
2022/05/26 09:48:29;;;;;;;3.67;1.60;;;20.00;56.80;;;;;;5053605;28;20183;-74
2022/05/26 09:51:11;;;;;;;5.78;1.80;;;20.00;56.90;;;;;;5053598;28;20630;-72
2022/05/26 09:53:42;;;;;;;4.28;1.38;;;19.90;57.00;;;;;;5064405;28;20205;-72
2022/05/26 09:56:08;;;;;;;3.25;1.83;;;19.80;57.20;;;;;;5074905;28;20213;-73
2022/05/26 09:58:39;;;;;;;1.85;1.30;;;19.80;57.20;;;;;;5072652;28;20189;-73
2022/05/26 10:01:29;;;;;;;5.03;2.00;;;20.00;57.60;;;;;;5073476;28;20242;-73
2022/05/26 10:04:20;;;;;;;3.47;1.48;;;20.10;56.80;;;;;;5073776;28;20237;-73
2022/05/26 10:06:49;;;;;;;2.75;1.40;;;20.10;56.60;;;;;;5072422;28;20186;-72
2022/05/26 10:09:27;;;;;;;2.80;1.50;;;20.00;56.80;;;;;;5073271;28;20217;-73
2022/05/26 10:12:22;;;;;;;5.22;1.80;;;20.00;57.00;;;;;;5072159;28;20182;-73
2022/05/26 10:15:00;;;;;;;2.40;1.25;;;20.00;57.10;;;;;;5058872;28;20179;-72
2022/05/26 10:17:49;;;;;;;2.90;1.30;;;20.10;56.90;;;;;;5074733;28;20475;-72
2022/05/26 10:20:51;;;;;;;1.33;1.20;;;20.10;56.80;;;;;;5074050;28;20301;-74
2022/05/26 10:23:40;;;;;;;2.05;1.00;;;20.00;56.90;;;;;;5067453;28;20606;-73
2022/05/26 10:26:16;;;;;;;1.83;1.38;;;20.00;57.10;;;;;;5072590;28;20213;-72
2022/05/26 10:28:57;;;;;;;2.50;1.40;;;20.00;57.20;;;;;;5037571;28;20254;-72
2022/05/26 10:31:37;;;;;;;2.55;1.20;;;20.10;57.00;;;;;;5054191;28;20569;-73
2022/05/26 10:34:07;;;;;;;3.00;1.30;;;20.20;56.80;;;;;;5052218;28;20194;-73
2022/05/26 10:36:54;;;;;;;1.30;1.13;;;20.30;56.60;;;;;;5052785;28;20193;-72
2022/05/26 10:39:39;;;;;;;1.85;1.10;;;20.30;56.50;;;;;;5037404;28;20179;-72
2022/05/26 10:42:07;;;;;;;2.13;1.33;;;20.30;56.50;;;;;;5053975;28;20218;-73
2022/05/26 10:44:36;;;;;;;2.28;1.30;;;20.30;56.50;;;;;;5052693;28;20175;-73
2022/05/26 10:47:07;;;;;;;3.67;1.55;;;20.40;56.50;;;;;;5034513;28;20175;-72
2022/05/26 10:49:38;;;;;;;2.67;1.10;;;20.40;56.50;;;;;;5036701;28;20182;-74
2022/05/26 10:52:21;;;;;;;2.17;1.30;;;20.40;56.60;;;;;;5053888;28;20242;-74
2022/05/26 10:55:07;;;;;;;2.03;1.00;;;20.40;56.70;;;;;;5051312;28;20630;-74
2022/05/26 10:57:53;;;;;;;4.95;1.23;;;20.40;56.60;;;;;;5052221;28;20183;-74
2022/05/26 11:00:21;;;;;;;5.03;1.50;;;20.30;56.60;;;;;;5051281;28;20746;-74
2022/05/26 11:03:11;;;;;;;4.47;1.38;;;20.30;56.80;;;;;;5035664;28;20227;-74
2022/05/26 11:05:40;;;;;;;4.03;1.20;;;20.40;56.90;;;;;;5053139;28;20175;-73
2022/05/26 11:08:35;;;;;;;3.67;1.15;;;20.40;56.80;;;;;;5051575;28;20179;-74
2022/05/26 11:11:23;;;;;;;3.15;1.70;;;20.50;56.70;;;;;;5037598;28;20651;-72
2022/05/26 11:17:21;;;;;;;2.35;1.35;;;20.50;56.70;;;;;;5052960;28;20535;-74
2022/05/26 11:20:05;;;;;;;1.70;1.30;;;20.50;56.80;;;;;;5051750;28;20670;-73
2022/05/26 11:22:31;;;;;;;4.85;1.17;;;20.40;56.90;;;;;;5051797;28;20219;-73
2022/05/26 11:24:57;;;;;;;4.60;1.40;;;20.50;56.90;;;;;;5052933;28;20175;-73
2022/05/26 11:27:39;;;;;;;2.50;1.55;;;20.50;56.90;;;;;;5043135;28;20216;-74
2022/05/26 11:36:21;;;;;;;3.47;1.30;;;20.60;56.70;;;;;;5051064;28;20544;-73
2022/05/26 11:38:49;;;;;;;2.90;1.33;;;20.60;56.70;;;;;;5051416;28;20575;-73
2022/05/26 11:41:35;;;;;;;3.78;1.58;;;20.60;56.90;;;;;;5034806;28;20210;-74
2022/05/26 11:44:09;;;;;;;1.95;1.20;;;20.60;56.70;;;;;;5036113;28;20175;-74
2022/05/26 11:46:46;;;;;;;3.25;1.10;;;20.60;56.70;;;;;;5052742;28;20183;-74
2022/05/26 11:49:43;;;;;;;3.40;1.27;;;20.70;56.50;;;;;;5051825;28;20197;-74
2022/05/26 11:52:24;;;;;;;4.25;1.20;;;20.70;56.50;;;;;;5052397;28;20581;-74
2022/05/26 11:54:58;;;;;;;4.78;1.50;;;20.70;56.40;;;;;;5052355;28;20241;-73
2022/05/26 11:57:36;;;;;;;2.65;1.25;;;20.80;56.40;;;;;;5051576;28;20225;-74
2022/05/26 12:00:20;;;;;;;2.30;1.10;;;20.70;56.40;;;;;;5052214;28;20257;-73
2022/05/26 12:02:46;;;;;;;2.92;1.70;;;20.80;56.40;;;;;;5052256;28;20314;-72
2022/05/26 12:05:30;;;;;;;3.00;1.50;;;20.80;56.30;;;;;;5051622;28;20722;-73
2022/05/26 12:08:04;;;;;;;1.95;1.10;;;20.80;56.30;;;;;;5052139;28;20186;-73
2022/05/26 12:10:39;;;;;;;3.42;1.48;;;20.80;56.10;;;;;;5049765;28;20278;-74
2022/05/26 12:13:23;;;;;;;2.83;1.08;;;20.80;56.10;;;;;;5059680;28;20625;-73
2022/05/26 12:16:09;;;;;;;3.15;1.00;;;20.90;56.70;;;;;;5062713;28;20220;-74
2022/05/26 12:18:48;;;;;;;3.03;1.52;;;20.90;56.00;;;;;;5050005;28;20531;-75
2022/05/26 12:21:16;;;;;;;2.95;1.20;;;20.90;56.00;;;;;;5071033;28;20206;-74
2022/05/26 12:23:42;;;;;;;2.20;1.10;;;20.90;56.70;;;;;;5070391;28;20178;-74
2022/05/26 12:26:47;;;;;;;1.35;0.90;;;20.80;56.20;;;;;;5071115;28;20201;-74
2022/05/26 12:29:46;;;;;;;1.88;1.08;;;20.80;56.30;;;;;;5046779;28;20191;-74
2022/05/26 12:32:12;;;;;;;2.63;1.20;;;20.90;56.10;;;;;;5051443;28;20268;-73
2022/05/26 12:34:45;;;;;;;3.03;1.00;;;20.90;56.00;;;;;;5051831;28;20609;-74
2022/05/26 12:37:17;;;;;;;1.27;0.90;;;20.90;56.70;;;;;;5035144;28;20171;-74
2022/05/26 12:40:14;;;;;;;2.67;1.23;;;21.00;55.90;;;;;;5049326;28;20207;-74
2022/05/26 12:43:05;;;;;;;1.25;1.10;;;21.00;55.90;;;;;;5051775;28;20297;-74
2022/05/26 12:45:48;;;;;;;1.48;1.10;;;20.90;55.80;;;;;;5057844;28;20192;-73
2022/05/26 12:48:35;;;;;;;1.55;1.15;;;21.00;55.80;;;;;;5070679;28;20183;-74
2022/05/26 12:51:08;;;;;;;2.47;1.08;;;20.90;55.80;;;;;;5072145;28;20170;-73
2022/05/26 12:53:33;;;;;;;1.27;1.00;;;21.00;55.70;;;;;;5071126;28;20597;-74
2022/05/26 12:56:19;;;;;;;1.65;0.70;;;21.00;55.70;;;;;;5070403;28;20190;-75
2022/05/26 12:58:53;;;;;;;2.17;1.10;;;21.10;55.70;;;;;;5070578;28;20269;-74
2022/05/26 13:01:19;;;;;;;1.25;0.80;;;21.00;55.70;;;;;;5070053;28;20351;-70
2022/05/26 13:03:47;;;;;;;2.47;1.00;;;21.00;55.80;;;;;;5070541;28;20551;-69
2022/05/26 13:06:22;;;;;;;2.95;0.90;;;21.00;55.70;;;;;;5071869;28;20209;-69
2022/05/26 13:08:49;;;;;;;3.60;0.95;;;21.10;55.60;;;;;;5071200;28;20189;-75
2022/05/26 13:11:20;;;;;;;6.60;1.40;;;21.20;55.70;;;;;;5071918;28;20182;-72
2022/05/26 13:13:51;;;;;;;4.68;1.15;;;21.20;55.50;;;;;;5053695;28;20840;-72
2022/05/26 13:16:36;;;;;;;3.35;0.98;;;21.30;55.60;;;;;;5053553;28;20649;-71
2022/05/26 13:19:13;;;;;;;3.42;1.13;;;21.20;55.70;;;;;;5068954;28;20193;-72
2022/05/26 13:21:39;;;;;;;6.40;1.13;;;21.20;55.80;;;;;;5050817;28;20202;-72
2022/05/26 13:24:11;;;;;;;6.50;1.55;;;21.20;55.90;;;;;;5051826;28;20265;-71
2022/05/26 13:26:37;;;;;;;2.95;1.02;;;21.10;55.90;;;;;;5050327;28;20183;-73
2022/05/26 13:29:02;;;;;;;3.20;1.10;;;21.10;55.90;;;;;;5049704;28;20538;-74
2022/05/26 13:34:12;;;;;;;5.47;1.20;;;21.10;55.80;;;;;;5051767;28;20174;-71
2022/05/26 13:36:40;;;;;;;5.88;1.00;;;21.20;55.80;;;;;;5050348;28;20176;-73
2022/05/26 13:39:23;;;;;;;1.85;1.00;;;21.20;55.80;;;;;;5055212;28;20178;-73
2022/05/26 13:41:52;;;;;;;4.80;1.00;;;21.20;55.80;;;;;;5053869;28;20293;-75
2022/05/26 13:44:30;;;;;;;5.35;1.13;;;21.20;55.70;;;;;;5053954;28;20232;-72
2022/05/26 13:46:57;;;;;;;4.15;1.00;;;21.20;55.70;;;;;;5053905;28;20201;-73
2022/05/26 13:49:32;;;;;;;2.40;1.00;;;21.30;55.70;;;;;;5054258;28;20179;-73
2022/05/26 13:51:59;;;;;;;1.75;1.00;;;21.30;55.70;;;;;;5054672;28;20232;-74
2022/05/26 13:54:48;;;;;;;2.83;1.02;;;21.30;55.70;;;;;;5053585;28;20186;-73
2022/05/26 13:57:16;;;;;;;1.92;1.33;;;21.40;55.60;;;;;;5053092;28;20179;-69